sensor_id;sensor_type;location;lat;lon;timestamp;pressure;altitude;pressure_sealevel;temperature;humidity
7532;BME280;3807;49.030;8.714;2023-02-28T00:02:14;100130.75;;;2.17;56.60
7532;BME280;3807;49.030;8.714;2023-02-28T00:04:42;100131.56;;;2.14;56.85
7532;BME280;3807;49.030;8.714;2023-02-28T00:07:08;100129.78;;;2.06;57.11
7532;BME280;3807;49.030;8.714;2023-02-28T00:09:33;100129.84;;;2.12;57.11
7532;BME280;3807;49.030;8.714;2023-02-28T00:11:58;100124.66;;;2.00;56.97
7532;BME280;3807;49.030;8.714;2023-02-28T00:14:24;100122.44;;;2.21;56.71
7532;BME280;3807;49.030;8.714;2023-02-28T00:16:49;100118.22;;;2.19;56.82
7532;BME280;3807;49.030;8.714;2023-02-28T00:19:14;100122.31;;;2.12;56.72
7532;BME280;3807;49.030;8.714;2023-02-28T00:21:40;100124.47;;;1.86;57.47
7532;BME280;3807;49.030;8.714;2023-02-28T00:24:06;100134.75;;;2.04;57.02
7532;BME280;3807;49.030;8.714;2023-02-28T00:26:32;100128.22;;;2.15;56.91
7532;BME280;3807;49.030;8.714;2023-02-28T00:28:57;100131.47;;;2.08;56.85
7532;BME280;3807;49.030;8.714;2023-02-28T00:31:22;100127.88;;;1.89;57.33
7532;BME280;3807;49.030;8.714;2023-02-28T00:33:48;100126.09;;;1.84;57.50
7532;BME280;3807;49.030;8.714;2023-02-28T00:36:13;100126.44;;;2.08;56.89
7532;BME280;3807;49.030;8.714;2023-02-28T00:38:39;100118.66;;;1.88;57.32
7532;BME280;3807;49.030;8.714;2023-02-28T00:41:05;100116.16;;;1.90;57.33
7532;BME280;3807;49.030;8.714;2023-02-28T00:43:36;100118.66;;;1.88;57.15
7532;BME280;3807;49.030;8.714;2023-02-28T00:46:02;100121.69;;;1.71;58.18
7532;BME280;3807;49.030;8.714;2023-02-28T00:48:28;100120.06;;;1.71;58.09
7532;BME280;3807;49.030;8.714;2023-02-28T00:50:53;100114.41;;;1.86;57.57
7532;BME280;3807;49.030;8.714;2023-02-28T00:53:19;100117.78;;;1.86;57.28
7532;BME280;3807;49.030;8.714;2023-02-28T00:55:44;100119.28;;;1.77;57.92
7532;BME280;3807;49.030;8.714;2023-02-28T00:58:09;100112.63;;;1.79;57.66
7532;BME280;3807;49.030;8.714;2023-02-28T01:00:35;100111.13;;;1.91;57.15
7532;BME280;3807;49.030;8.714;2023-02-28T01:03:00;100110.03;;;1.71;58.03
7532;BME280;3807;49.030;8.714;2023-02-28T01:05:25;100114.84;;;1.59;58.13
7532;BME280;3807;49.030;8.714;2023-02-28T01:07:51;100107.53;;;1.73;57.83
7532;BME280;3807;49.030;8.714;2023-02-28T01:10:16;100118.66;;;1.90;57.54
7532;BME280;3807;49.030;8.714;2023-02-28T01:12:41;100115.06;;;1.74;57.83
7532;BME280;3807;49.030;8.714;2023-02-28T01:15:09;100114.69;;;1.50;58.57
7532;BME280;3807;49.030;8.714;2023-02-28T01:17:35;100115.78;;;1.65;58.11
7532;BME280;3807;49.030;8.714;2023-02-28T01:20:01;100122.09;;;1.42;58.75
7532;BME280;3807;49.030;8.714;2023-02-28T01:22:26;100113.38;;;1.72;58.16
7532;BME280;3807;49.030;8.714;2023-02-28T01:24:51;100120.28;;;1.88;57.91
7532;BME280;3807;49.030;8.714;2023-02-28T01:27:17;100113.47;;;1.79;57.68
7532;BME280;3807;49.030;8.714;2023-02-28T01:29:42;100117.78;;;1.86;57.73
7532;BME280;3807;49.030;8.714;2023-02-28T01:32:07;100114.94;;;1.65;57.93
7532;BME280;3807;49.030;8.714;2023-02-28T01:34:32;100113.31;;;1.70;57.70
7532;BME280;3807;49.030;8.714;2023-02-28T01:36:58;100110.72;;;1.62;58.00
7532;BME280;3807;49.030;8.714;2023-02-28T01:39:24;100110.12;;;1.79;57.63
7532;BME280;3807;49.030;8.714;2023-02-28T01:41:50;100108.81;;;1.48;58.53
7532;BME280;3807;49.030;8.714;2023-02-28T01:47:18;100111.34;;;1.49;58.73
7532;BME280;3807;49.030;8.714;2023-02-28T01:49:44;100110.53;;;1.52;58.44
7532;BME280;3807;49.030;8.714;2023-02-28T01:52:11;100108.03;;;1.53;58.01
7532;BME280;3807;49.030;8.714;2023-02-28T01:54:45;100112.31;;;1.57;58.28
7532;BME280;3807;49.030;8.714;2023-02-28T01:57:16;100111.91;;;1.87;57.53
7532;BME280;3807;49.030;8.714;2023-02-28T01:59:54;100106.78;;;1.78;57.65
7532;BME280;3807;49.030;8.714;2023-02-28T02:02:24;100108.41;;;1.75;57.73
7532;BME280;3807;49.030;8.714;2023-02-28T02:04:54;100105.84;;;1.72;57.87
7532;BME280;3807;49.030;8.714;2023-02-28T02:07:20;100105.09;;;1.79;57.37
7532;BME280;3807;49.030;8.714;2023-02-28T02:09:46;100099.94;;;1.70;57.61
7532;BME280;3807;49.030;8.714;2023-02-28T02:12:30;100097.53;;;1.76;57.53
7532;BME280;3807;49.030;8.714;2023-02-28T02:15:14;100099.81;;;1.62;58.05
7532;BME280;3807;49.030;8.714;2023-02-28T02:17:46;100099.09;;;1.67;58.05
7532;BME280;3807;49.030;8.714;2023-02-28T02:20:32;100097.66;;;1.85;57.43
7532;BME280;3807;49.030;8.714;2023-02-28T02:23:14;100086.75;;;1.83;57.44
7532;BME280;3807;49.030;8.714;2023-02-28T02:32:16;100080.28;;;1.42;58.50
7532;BME280;3807;49.030;8.714;2023-02-28T02:37:51;100089.00;;;1.64;58.06
7532;BME280;3807;49.030;8.714;2023-02-28T02:40:23;100090.84;;;1.78;57.58
7532;BME280;3807;49.030;8.714;2023-02-28T02:43:04;100088.06;;;1.59;57.92
7532;BME280;3807;49.030;8.714;2023-02-28T02:45:53;100088.78;;;1.52;58.08
7532;BME280;3807;49.030;8.714;2023-02-28T02:48:25;100092.19;;;1.54;58.02
7532;BME280;3807;49.030;8.714;2023-02-28T02:50:55;100084.72;;;1.60;58.47
7532;BME280;3807;49.030;8.714;2023-02-28T02:53:27;100092.50;;;1.76;57.52
7532;BME280;3807;49.030;8.714;2023-02-28T02:55:54;100084.81;;;1.65;57.97
7532;BME280;3807;49.030;8.714;2023-02-28T02:58:27;100089.84;;;1.65;57.77
7532;BME280;3807;49.030;8.714;2023-02-28T03:00:58;100075.63;;;1.67;57.52
7532;BME280;3807;49.030;8.714;2023-02-28T03:03:26;100081.81;;;1.33;58.81
7532;BME280;3807;49.030;8.714;2023-02-28T03:05:59;100090.69;;;1.14;59.40
7532;BME280;3807;49.030;8.714;2023-02-28T03:08:26;100086.16;;;1.45;58.57
7532;BME280;3807;49.030;8.714;2023-02-28T03:10:57;100088.78;;;1.52;58.41
7532;BME280;3807;49.030;8.714;2023-02-28T03:16:03;100090.34;;;1.46;58.65
7532;BME280;3807;49.030;8.714;2023-02-28T03:19:02;100087.28;;;1.62;58.27
7532;BME280;3807;49.030;8.714;2023-02-28T03:21:36;100079.59;;;1.53;58.32
7532;BME280;3807;49.030;8.714;2023-02-28T03:26:55;100085.00;;;1.24;59.15
7532;BME280;3807;49.030;8.714;2023-02-28T03:29:34;100083.28;;;1.22;59.36
7532;BME280;3807;49.030;8.714;2023-02-28T03:32:08;100075.66;;;1.15;59.35
7532;BME280;3807;49.030;8.714;2023-02-28T03:34:42;100086.69;;;1.25;59.26
7532;BME280;3807;49.030;8.714;2023-02-28T03:37:16;100086.84;;;1.34;59.13
7532;BME280;3807;49.030;8.714;2023-02-28T03:39:47;100082.72;;;1.38;59.17
7532;BME280;3807;49.030;8.714;2023-02-28T03:42:19;100080.47;;;1.56;58.59
7532;BME280;3807;49.030;8.714;2023-02-28T03:44:49;100086.28;;;1.52;58.51
7532;BME280;3807;49.030;8.714;2023-02-28T03:47:21;100080.28;;;1.42;58.73
7532;BME280;3807;49.030;8.714;2023-02-28T03:52:50;100075.97;;;1.35;58.92
7532;BME280;3807;49.030;8.714;2023-02-28T03:55:18;100081.37;;;1.58;58.29
7532;BME280;3807;49.030;8.714;2023-02-28T03:58:01;100083.66;;;1.46;58.69
7532;BME280;3807;49.030;8.714;2023-02-28T04:00:34;100081.03;;;1.38;58.99
7532;BME280;3807;49.030;8.714;2023-02-28T04:03:01;100078.53;;;1.38;59.05
7532;BME280;3807;49.030;8.714;2023-02-28T04:05:27;100075.13;;;1.33;59.13
7532;BME280;3807;49.030;8.714;2023-02-28T04:07:53;100087.72;;;1.36;59.24
7532;BME280;3807;49.030;8.714;2023-02-28T04:10:19;100086.00;;;1.35;59.18
7532;BME280;3807;49.030;8.714;2023-02-28T04:12:45;100082.84;;;0.97;60.23
7532;BME280;3807;49.030;8.714;2023-02-28T04:15:10;100089.97;;;1.21;59.69
7532;BME280;3807;49.030;8.714;2023-02-28T04:17:36;100091.81;;;1.31;59.48
7532;BME280;3807;49.030;8.714;2023-02-28T04:20:02;100088.47;;;1.32;59.41
7532;BME280;3807;49.030;8.714;2023-02-28T04:22:28;100083.44;;;1.32;59.34
7532;BME280;3807;49.030;8.714;2023-02-28T04:24:54;100080.44;;;1.53;58.67
7532;BME280;3807;49.030;8.714;2023-02-28T04:27:20;100082.59;;;1.30;59.07
7532;BME280;3807;49.030;8.714;2023-02-28T04:29:45;100079.91;;;1.19;59.77
7532;BME280;3807;49.030;8.714;2023-02-28T04:32:11;100075.97;;;1.34;59.50
7532;BME280;3807;49.030;8.714;2023-02-28T04:34:36;100079.69;;;1.07;60.07
7532;BME280;3807;49.030;8.714;2023-02-28T04:37:02;100080.87;;;1.26;59.70
7532;BME280;3807;49.030;8.714;2023-02-28T04:39:28;100074.41;;;1.42;59.09
7532;BME280;3807;49.030;8.714;2023-02-28T04:41:55;100083.44;;;1.32;59.29
7532;BME280;3807;49.030;8.714;2023-02-28T04:44:20;100076.25;;;1.51;58.76
7532;BME280;3807;49.030;8.714;2023-02-28T04:46:47;100077.19;;;1.60;58.64
7532;BME280;3807;49.030;8.714;2023-02-28T04:49:13;100078.25;;;1.20;59.83
7532;BME280;3807;49.030;8.714;2023-02-28T04:51:39;100089.69;;;1.54;58.93
7532;BME280;3807;49.030;8.714;2023-02-28T04:54:05;100085.13;;;1.32;59.42
7532;BME280;3807;49.030;8.714;2023-02-28T04:56:30;100079.19;;;1.27;59.51
7532;BME280;3807;49.030;8.714;2023-02-28T04:58:56;100082.56;;;1.29;59.37
7532;BME280;3807;49.030;8.714;2023-02-28T05:01:26;100080.19;;;1.36;59.18
7532;BME280;3807;49.030;8.714;2023-02-28T05:03:54;100083.72;;;1.49;58.96
7532;BME280;3807;49.030;8.714;2023-02-28T05:06:21;100090.34;;;1.44;59.00
7532;BME280;3807;49.030;8.714;2023-02-28T05:08:47;100092.25;;;1.57;58.61
7532;BME280;3807;49.030;8.714;2023-02-28T05:11:20;100096.94;;;1.39;59.21
7532;BME280;3807;49.030;8.714;2023-02-28T05:13:46;100092.91;;;1.49;58.95
7532;BME280;3807;49.030;8.714;2023-02-28T05:16:12;100090.22;;;1.36;59.34
7532;BME280;3807;49.030;8.714;2023-02-28T05:18:37;100096.00;;;1.31;59.40
7532;BME280;3807;49.030;8.714;2023-02-28T05:21:03;100100.12;;;1.29;59.63
7532;BME280;3807;49.030;8.714;2023-02-28T05:23:28;100096.28;;;0.99;60.65
7532;BME280;3807;49.030;8.714;2023-02-28T05:25:54;100098.13;;;1.09;60.40
7532;BME280;3807;49.030;8.714;2023-02-28T05:28:19;100100.22;;;0.86;61.21
7532;BME280;3807;49.030;8.714;2023-02-28T05:30:45;100103.34;;;1.22;60.24
7532;BME280;3807;49.030;8.714;2023-02-28T05:33:11;100102.75;;;1.35;59.53
7532;BME280;3807;49.030;8.714;2023-02-28T05:35:38;100106.31;;;1.48;59.25
7532;BME280;3807;49.030;8.714;2023-02-28T05:38:04;100105.22;;;1.33;59.70
7532;BME280;3807;49.030;8.714;2023-02-28T05:40:29;100095.81;;;1.22;60.24
7532;BME280;3807;49.030;8.714;2023-02-28T05:42:55;100110.72;;;1.12;60.55
7532;BME280;3807;49.030;8.714;2023-02-28T05:45:20;100098.91;;;1.07;60.82
7532;BME280;3807;49.030;8.714;2023-02-28T05:47:45;100106.81;;;1.28;60.02
7532;BME280;3807;49.030;8.714;2023-02-28T05:50:11;100108.09;;;1.05;61.02
7532;BME280;3807;49.030;8.714;2023-02-28T05:52:36;100104.94;;;1.16;60.41
7532;BME280;3807;49.030;8.714;2023-02-28T05:55:02;100109.78;;;1.07;60.75
7532;BME280;3807;49.030;8.714;2023-02-28T05:57:28;100110.63;;;1.06;60.94
7532;BME280;3807;49.030;8.714;2023-02-28T05:59:53;100115.16;;;1.26;59.95
7532;BME280;3807;49.030;8.714;2023-02-28T06:02:18;100117.19;;;1.50;59.49
7532;BME280;3807;49.030;8.714;2023-02-28T06:04:44;100106.91;;;1.34;59.74
7532;BME280;3807;49.030;8.714;2023-02-28T06:07:10;100105.13;;;1.29;59.99
7532;BME280;3807;49.030;8.714;2023-02-28T06:09:36;100102.06;;;1.45;59.58
7532;BME280;3807;49.030;8.714;2023-02-28T06:12:03;100095.81;;;1.22;60.44
7532;BME280;3807;49.030;8.714;2023-02-28T06:14:31;100107.88;;;1.42;59.64
7532;BME280;3807;49.030;8.714;2023-02-28T06:16:58;100105.19;;;1.30;59.90
7532;BME280;3807;49.030;8.714;2023-02-28T06:19:23;100109.31;;;1.28;60.14
7532;BME280;3807;49.030;8.714;2023-02-28T06:21:51;100105.91;;;1.23;60.28
7532;BME280;3807;49.030;8.714;2023-02-28T06:24:18;100104.31;;;1.28;60.03
7532;BME280;3807;49.030;8.714;2023-02-28T06:26:44;100105.25;;;1.35;59.84
7532;BME280;3807;49.030;8.714;2023-02-28T06:29:09;100109.19;;;1.19;60.23
7532;BME280;3807;49.030;8.714;2023-02-28T06:31:34;100109.31;;;1.28;60.27
7532;BME280;3807;49.030;8.714;2023-02-28T06:34:00;100112.53;;;1.19;60.31
7532;BME280;3807;49.030;8.714;2023-02-28T06:36:25;100121.03;;;1.28;59.87
7532;BME280;3807;49.030;8.714;2023-02-28T06:38:50;100121.25;;;1.41;59.83
7532;BME280;3807;49.030;8.714;2023-02-28T06:41:21;100125.13;;;1.23;60.27
7532;BME280;3807;49.030;8.714;2023-02-28T06:43:46;100121.72;;;1.21;60.36
7532;BME280;3807;49.030;8.714;2023-02-28T06:46:13;100125.72;;;1.09;61.16
7532;BME280;3807;49.030;8.714;2023-02-28T06:48:39;100130.34;;;1.33;60.19
7532;BME280;3807;49.030;8.714;2023-02-28T06:51:10;100133.19;;;1.06;61.08
7532;BME280;3807;49.030;8.714;2023-02-28T06:53:36;100143.59;;;1.26;60.48
7532;BME280;3807;49.030;8.714;2023-02-28T06:56:06;100155.41;;;1.33;60.21
7532;BME280;3807;49.030;8.714;2023-02-28T06:58:32;100151.97;;;1.27;60.58
7532;BME280;3807;49.030;8.714;2023-02-28T07:00:58;100149.69;;;1.42;59.88
7532;BME280;3807;49.030;8.714;2023-02-28T07:03:23;100146.28;;;1.38;59.96
7532;BME280;3807;49.030;8.714;2023-02-28T07:05:49;100154.16;;;1.10;61.00
7532;BME280;3807;49.030;8.714;2023-02-28T07:08:14;100149.88;;;1.04;61.15
7532;BME280;3807;49.030;8.714;2023-02-28T07:10:40;100152.63;;;1.18;61.00
7532;BME280;3807;49.030;8.714;2023-02-28T07:13:06;100163.81;;;1.35;60.16
7532;BME280;3807;49.030;8.714;2023-02-28T07:15:32;100154.16;;;1.08;61.19
7532;BME280;3807;49.030;8.714;2023-02-28T07:17:57;100155.63;;;0.99;61.43
7532;BME280;3807;49.030;8.714;2023-02-28T07:20:24;100155.81;;;1.09;61.22
7532;BME280;3807;49.030;8.714;2023-02-28T07:22:49;100156.13;;;1.26;60.72
7532;BME280;3807;49.030;8.714;2023-02-28T07:25:22;100156.66;;;1.08;61.53
7532;BME280;3807;49.030;8.714;2023-02-28T07:27:48;100160.19;;;1.19;61.01
7532;BME280;3807;49.030;8.714;2023-02-28T07:30:14;100162.69;;;1.19;60.83
7532;BME280;3807;49.030;8.714;2023-02-28T07:32:39;100172.16;;;1.34;60.40
7532;BME280;3807;49.030;8.714;2023-02-28T07:35:05;100172.81;;;1.24;61.12
7532;BME280;3807;49.030;8.714;2023-02-28T07:37:30;100177.50;;;1.07;61.47
7532;BME280;3807;49.030;8.714;2023-02-28T07:40:06;100171.50;;;1.45;60.39
7532;BME280;3807;49.030;8.714;2023-02-28T07:42:34;100174.84;;;1.43;60.31
7532;BME280;3807;49.030;8.714;2023-02-28T07:44:59;100175.75;;;1.49;60.14
7532;BME280;3807;49.030;8.714;2023-02-28T07:47:25;100193.50;;;1.12;61.37
7532;BME280;3807;49.030;8.714;2023-02-28T07:49:50;100178.72;;;1.26;61.17
7532;BME280;3807;49.030;8.714;2023-02-28T07:52:15;100174.91;;;1.50;60.34
7532;BME280;3807;49.030;8.714;2023-02-28T07:54:41;100172.53;;;1.56;60.13
7532;BME280;3807;49.030;8.714;2023-02-28T07:57:06;100174.84;;;1.45;60.28
7532;BME280;3807;49.030;8.714;2023-02-28T07:59:31;100172.41;;;1.48;60.36
7532;BME280;3807;49.030;8.714;2023-02-28T08:01:57;100172.16;;;1.34;60.65
7532;BME280;3807;49.030;8.714;2023-02-28T08:04:23;100178.31;;;1.52;60.34
7532;BME280;3807;49.030;8.714;2023-02-28T08:06:48;100177.28;;;1.40;60.79
7532;BME280;3807;49.030;8.714;2023-02-28T08:09:17;100174.12;;;1.52;60.10
7532;BME280;3807;49.030;8.714;2023-02-28T08:11:42;100173.06;;;1.39;60.54
7532;BME280;3807;49.030;8.714;2023-02-28T08:14:07;100177.81;;;1.24;61.33
7532;BME280;3807;49.030;8.714;2023-02-28T08:16:33;100181.53;;;1.43;60.88
7532;BME280;3807;49.030;8.714;2023-02-28T08:18:58;100183.88;;;1.35;61.16
7532;BME280;3807;49.030;8.714;2023-02-28T08:21:23;100191.75;;;1.54;60.62
7532;BME280;3807;49.030;8.714;2023-02-28T08:23:50;100187.66;;;1.60;60.30
7532;BME280;3807;49.030;8.714;2023-02-28T08:26:17;100188.16;;;1.41;60.90
7532;BME280;3807;49.030;8.714;2023-02-28T08:28:43;100190.81;;;1.49;60.84
7532;BME280;3807;49.030;8.714;2023-02-28T08:31:10;100192.25;;;1.36;61.02
7532;BME280;3807;49.030;8.714;2023-02-28T08:33:37;100190.75;;;1.44;60.74
7532;BME280;3807;49.030;8.714;2023-02-28T08:36:04;100181.44;;;1.38;61.34
7532;BME280;3807;49.030;8.714;2023-02-28T08:38:30;100185.19;;;1.63;60.38
7532;BME280;3807;49.030;8.714;2023-02-28T08:41:05;100193.31;;;1.47;60.90
7532;BME280;3807;49.030;8.714;2023-02-28T08:43:32;100190.28;;;1.66;60.66
7532;BME280;3807;49.030;8.714;2023-02-28T08:45:58;100198.84;;;1.29;61.67
7532;BME280;3807;49.030;8.714;2023-02-28T08:48:24;100195.47;;;1.29;61.44
7532;BME280;3807;49.030;8.714;2023-02-28T08:51:04;100191.62;;;1.48;61.28
7532;BME280;3807;49.030;8.714;2023-02-28T08:53:30;100188.03;;;1.33;61.56
7532;BME280;3807;49.030;8.714;2023-02-28T08:56:14;100193.78;;;1.28;62.00
7532;BME280;3807;49.030;8.714;2023-02-28T08:58:42;100182.22;;;1.36;61.78
7532;BME280;3807;49.030;8.714;2023-02-28T09:01:16;100188.81;;;1.29;61.98
7532;BME280;3807;49.030;8.714;2023-02-28T09:03:42;100187.91;;;1.26;62.09
7532;BME280;3807;49.030;8.714;2023-02-28T09:06:10;100196.66;;;1.48;61.61
7532;BME280;3807;49.030;8.714;2023-02-28T09:08:35;100202.94;;;1.74;61.01
7532;BME280;3807;49.030;8.714;2023-02-28T09:11:01;100200.66;;;1.88;60.43
7532;BME280;3807;49.030;8.714;2023-02-28T09:13:28;100197.25;;;1.84;60.39
7532;BME280;3807;49.030;8.714;2023-02-28T09:15:58;100195.56;;;1.83;60.68
7532;BME280;3807;49.030;8.714;2023-02-28T09:18:23;100191.34;;;1.81;60.61
7532;BME280;3807;49.030;8.714;2023-02-28T09:20:49;100201.47;;;1.85;60.59
7532;BME280;3807;49.030;8.714;2023-02-28T09:23:15;100200.66;;;1.86;60.42
7532;BME280;3807;49.030;8.714;2023-02-28T09:25:52;100198.03;;;1.80;60.71
7532;BME280;3807;49.030;8.714;2023-02-28T09:28:18;100193.13;;;1.88;60.71
7532;BME280;3807;49.030;8.714;2023-02-28T09:30:45;100198.09;;;1.83;60.59
7532;BME280;3807;49.030;8.714;2023-02-28T09:33:13;100189.72;;;1.84;60.55
7532;BME280;3807;49.030;8.714;2023-02-28T09:35:38;100195.56;;;1.83;60.50
7532;BME280;3807;49.030;8.714;2023-02-28T09:38:04;100198.25;;;1.94;60.54
7532;BME280;3807;49.030;8.714;2023-02-28T09:40:30;100197.63;;;2.09;60.16
7532;BME280;3807;49.030;8.714;2023-02-28T09:42:57;100190.38;;;2.27;59.45
7532;BME280;3807;49.030;8.714;2023-02-28T09:45:28;100191.97;;;2.21;59.70
7532;BME280;3807;49.030;8.714;2023-02-28T09:47:56;100195.47;;;2.30;59.44
7532;BME280;3807;49.030;8.714;2023-02-28T09:50:46;100198.50;;;2.11;60.06
7532;BME280;3807;49.030;8.714;2023-02-28T09:53:29;100197.63;;;2.07;60.17
7532;BME280;3807;49.030;8.714;2023-02-28T10:01:47;100195.06;;;2.04;60.53
7532;BME280;3807;49.030;8.714;2023-02-28T10:10:26;100211.28;;;2.26;59.90
7532;BME280;3807;49.030;8.714;2023-02-28T10:12:55;100204.62;;;2.28;59.74
7532;BME280;3807;49.030;8.714;2023-02-28T10:15:24;100193.69;;;2.26;60.09
7532;BME280;3807;49.030;8.714;2023-02-28T10:17:54;100201.47;;;2.42;59.76
7532;BME280;3807;49.030;8.714;2023-02-28T10:20:23;100197.31;;;2.45;59.44
7532;BME280;3807;49.030;8.714;2023-02-28T10:23:16;100198.78;;;2.29;59.93
7532;BME280;3807;49.030;8.714;2023-02-28T10:25:47;100207.28;;;2.37;59.60
7532;BME280;3807;49.030;8.714;2023-02-28T10:28:16;100203.16;;;2.43;59.76
7532;BME280;3807;49.030;8.714;2023-02-28T10:30:51;100204.19;;;2.57;59.30
7532;BME280;3807;49.030;8.714;2023-02-28T10:33:22;100211.91;;;2.71;59.04
7532;BME280;3807;49.030;8.714;2023-02-28T10:35:49;100203.37;;;2.61;59.36
7532;BME280;3807;49.030;8.714;2023-02-28T10:38:17;100203.50;;;2.70;58.99
7532;BME280;3807;49.030;8.714;2023-02-28T10:40:43;100209.34;;;2.66;59.41
7532;BME280;3807;49.030;8.714;2023-02-28T10:50:55;100209.59;;;2.89;58.39
7532;BME280;3807;49.030;8.714;2023-02-28T10:56:12;100208.81;;;2.92;57.82
7532;BME280;3807;49.030;8.714;2023-02-28T11:01:35;100207.22;;;3.00;57.64
7532;BME280;3807;49.030;8.714;2023-02-28T11:04:02;100209.09;;;3.16;57.33
7532;BME280;3807;49.030;8.714;2023-02-28T11:06:33;100200.81;;;3.26;57.61
7532;BME280;3807;49.030;8.714;2023-02-28T11:09:05;100195.88;;;3.36;57.22
7532;BME280;3807;49.030;8.714;2023-02-28T11:11:47;100191.50;;;3.18;57.04
7532;BME280;3807;49.030;8.714;2023-02-28T11:14:22;100204.00;;;3.12;57.72
7532;BME280;3807;49.030;8.714;2023-02-28T11:16:49;100197.44;;;3.26;57.39
7532;BME280;3807;49.030;8.714;2023-02-28T11:19:39;100196.69;;;3.33;57.25
7532;BME280;3807;49.030;8.714;2023-02-28T11:22:05;100201.66;;;3.25;57.42
7532;BME280;3807;49.030;8.714;2023-02-28T11:24:41;100195.78;;;3.25;57.41
7532;BME280;3807;49.030;8.714;2023-02-28T11:27:25;100189.75;;;3.14;57.81
7532;BME280;3807;49.030;8.714;2023-02-28T11:29:50;100187.41;;;3.29;57.63
7532;BME280;3807;49.030;8.714;2023-02-28T11:32:23;100193.37;;;3.39;56.89
7532;BME280;3807;49.030;8.714;2023-02-28T11:37:28;100184.38;;;3.64;56.19
7532;BME280;3807;49.030;8.714;2023-02-28T11:39:55;100184.34;;;3.61;56.67
7532;BME280;3807;49.030;8.714;2023-02-28T11:42:43;100177.75;;;3.73;56.33
7532;BME280;3807;49.030;8.714;2023-02-28T11:45:21;100178.59;;;3.75;55.86
7532;BME280;3807;49.030;8.714;2023-02-28T11:48:43;100178.59;;;3.74;56.62
7532;BME280;3807;49.030;8.714;2023-02-28T12:02:03;100180.44;;;4.01;55.78
7532;BME280;3807;49.030;8.714;2023-02-28T12:07:15;100179.78;;;4.23;55.25
7532;BME280;3807;49.030;8.714;2023-02-28T12:12:40;100175.50;;;4.13;55.07
7532;BME280;3807;49.030;8.714;2023-02-28T12:15:24;100187.34;;;4.23;55.30
7532;BME280;3807;49.030;8.714;2023-02-28T12:20:45;100185.75;;;4.38;55.08
7532;BME280;3807;49.030;8.714;2023-02-28T12:23:25;100178.16;;;4.33;55.12
7532;BME280;3807;49.030;8.714;2023-02-28T12:26:02;100172.28;;;4.34;55.53
7532;BME280;3807;49.030;8.714;2023-02-28T12:28:37;100169.78;;;4.37;55.19
7532;BME280;3807;49.030;8.714;2023-02-28T12:31:09;100159.78;;;4.57;54.53
7532;BME280;3807;49.030;8.714;2023-02-28T12:33:42;100159.78;;;4.56;54.68
7532;BME280;3807;49.030;8.714;2023-02-28T12:36:11;100156.38;;;4.49;54.78
7532;BME280;3807;49.030;8.714;2023-02-28T12:38:55;100153.94;;;4.64;54.54
7532;BME280;3807;49.030;8.714;2023-02-28T12:41:36;100154.75;;;4.63;54.34
7532;BME280;3807;49.030;8.714;2023-02-28T12:44:09;100154.81;;;4.71;54.27
7532;BME280;3807;49.030;8.714;2023-02-28T12:46:41;100154.78;;;4.69;54.26
7532;BME280;3807;49.030;8.714;2023-02-28T12:49:12;100155.66;;;4.81;54.05
7532;BME280;3807;49.030;8.714;2023-02-28T12:51:39;100137.16;;;4.88;53.84
7532;BME280;3807;49.030;8.714;2023-02-28T12:56:49;100148.06;;;4.77;54.32
7532;BME280;3807;49.030;8.714;2023-02-28T12:59:41;100144.72;;;4.75;54.57
7532;BME280;3807;49.030;8.714;2023-02-28T13:02:51;100135.47;;;4.79;53.63
7532;BME280;3807;49.030;8.714;2023-02-28T13:08:01;100130.50;;;5.07;53.45
7532;BME280;3807;49.030;8.714;2023-02-28T13:10:49;100128.81;;;5.15;53.29
7532;BME280;3807;49.030;8.714;2023-02-28T13:13:24;100122.94;;;5.20;53.05
7532;BME280;3807;49.030;8.714;2023-02-28T13:18:30;100133.06;;;5.45;52.97
7532;BME280;3807;49.030;8.714;2023-02-28T13:20:56;100135.59;;;5.39;53.05
7532;BME280;3807;49.030;8.714;2023-02-28T13:23:39;100135.63;;;5.51;52.88
7532;BME280;3807;49.030;8.714;2023-02-28T13:26:04;100130.53;;;5.40;52.65
7532;BME280;3807;49.030;8.714;2023-02-28T13:31:14;100134.75;;;5.50;53.14
7532;BME280;3807;49.030;8.714;2023-02-28T13:38:43;100133.06;;;5.63;52.67
7532;BME280;3807;49.030;8.714;2023-02-28T13:44:14;100143.19;;;5.37;54.08
7532;BME280;3807;49.030;8.714;2023-02-28T13:49:33;100122.09;;;5.29;53.31
7532;BME280;3807;49.030;8.714;2023-02-28T14:06:55;100139.78;;;5.64;54.20
7532;BME280;3807;49.030;8.714;2023-02-28T14:09:30;100136.44;;;5.67;53.52
7532;BME280;3807;49.030;8.714;2023-02-28T14:11:57;100134.75;;;6.03;52.65
7532;BME280;3807;49.030;8.714;2023-02-28T14:14:54;100138.09;;;6.06;52.12
7532;BME280;3807;49.030;8.714;2023-02-28T14:17:20;100130.56;;;5.94;52.75
7532;BME280;3807;49.030;8.714;2023-02-28T14:19:47;100130.53;;;5.88;53.55
7532;BME280;3807;49.030;8.714;2023-02-28T14:33:05;100129.69;;;5.83;53.22
7532;BME280;3807;49.030;8.714;2023-02-28T14:35:57;100124.63;;;6.03;52.13
7532;BME280;3807;49.030;8.714;2023-02-28T14:38:32;100127.12;;;6.18;52.81
7532;BME280;3807;49.030;8.714;2023-02-28T14:41:04;100126.31;;;5.96;52.51
7532;BME280;3807;49.030;8.714;2023-02-28T14:43:32;100120.41;;;5.91;52.80
7532;BME280;3807;49.030;8.714;2023-02-28T14:46:01;100124.63;;;6.00;52.30
7532;BME280;3807;49.030;8.714;2023-02-28T14:48:28;100117.03;;;6.18;51.88
7532;BME280;3807;49.030;8.714;2023-02-28T14:50:56;100122.06;;;6.23;52.67
7532;BME280;3807;49.030;8.714;2023-02-28T14:53:25;100118.66;;;6.33;51.99
7532;BME280;3807;49.030;8.714;2023-02-28T14:55:51;100126.31;;;6.08;51.77
7532;BME280;3807;49.030;8.714;2023-02-28T14:58:29;100121.19;;;6.33;51.87
7532;BME280;3807;49.030;8.714;2023-02-28T15:00:57;100127.09;;;6.26;51.68
7532;BME280;3807;49.030;8.714;2023-02-28T15:03:34;100122.91;;;6.15;51.90
7532;BME280;3807;49.030;8.714;2023-02-28T15:06:02;100131.28;;;6.45;52.61
7532;BME280;3807;49.030;8.714;2023-02-28T15:08:29;100126.97;;;6.62;51.88
7532;BME280;3807;49.030;8.714;2023-02-28T15:11:02;100128.78;;;6.28;52.03
7532;BME280;3807;49.030;8.714;2023-02-28T15:13:51;100132.09;;;6.41;52.78
7532;BME280;3807;49.030;8.714;2023-02-28T15:16:20;100137.25;;;6.12;52.71
7532;BME280;3807;49.030;8.714;2023-02-28T15:18:50;100132.19;;;6.19;52.89
7532;BME280;3807;49.030;8.714;2023-02-28T15:21:21;100129.66;;;6.16;52.33
7532;BME280;3807;49.030;8.714;2023-02-28T15:23:52;100138.97;;;6.04;52.08
7532;BME280;3807;49.030;8.714;2023-02-28T15:26:20;100138.94;;;6.14;52.77
7532;BME280;3807;49.030;8.714;2023-02-28T15:28:54;100144.00;;;6.13;52.42
7532;BME280;3807;49.030;8.714;2023-02-28T15:31:46;100141.41;;;6.36;51.93